sensor_id;sensor_type;location;lat;lon;timestamp;P1;durP1;ratioP1;P2;durP2;ratioP2
19605;SDS011;9950;50.168;8.210;2022-09-09T00:02:14;4.32;;;1.65;;
19605;SDS011;9950;50.168;8.210;2022-09-09T00:04:45;3.75;;;1.52;;
19605;SDS011;9950;50.168;8.210;2022-09-09T00:07:17;4.50;;;1.60;;
19605;SDS011;9950;50.168;8.210;2022-09-09T00:09:47;4.50;;;1.88;;
19605;SDS011;9950;50.168;8.210;2022-09-09T00:12:17;3.97;;;1.83;;
19605;SDS011;9950;50.168;8.210;2022-09-09T00:14:48;5.82;;;1.98;;
19605;SDS011;9950;50.168;8.210;2022-09-09T00:17:22;4.03;;;1.73;;
19605;SDS011;9950;50.168;8.210;2022-09-09T00:19:52;3.80;;;1.33;;
19605;SDS011;9950;50.168;8.210;2022-09-09T00:22:23;3.42;;;1.85;;
19605;SDS011;9950;50.168;8.210;2022-09-09T00:24:51;3.40;;;1.42;;
19605;SDS011;9950;50.168;8.210;2022-09-09T00:27:22;6.05;;;1.73;;
19605;SDS011;9950;50.168;8.210;2022-09-09T00:29:53;4.50;;;1.50;;
19605;SDS011;9950;50.168;8.210;2022-09-09T00:32:24;2.72;;;1.67;;
19605;SDS011;9950;50.168;8.210;2022-09-09T00:34:55;4.78;;;1.55;;
19605;SDS011;9950;50.168;8.210;2022-09-09T00:37:24;4.05;;;1.30;;
19605;SDS011;9950;50.168;8.210;2022-09-09T00:39:52;3.47;;;1.38;;
19605;SDS011;9950;50.168;8.210;2022-09-09T00:42:24;4.75;;;1.30;;
19605;SDS011;9950;50.168;8.210;2022-09-09T00:44:52;4.88;;;1.73;;
19605;SDS011;9950;50.168;8.210;2022-09-09T00:47:33;7.10;;;1.77;;
19605;SDS011;9950;50.168;8.210;2022-09-09T00:50:08;3.33;;;1.38;;
19605;SDS011;9950;50.168;8.210;2022-09-09T00:52:40;4.45;;;1.38;;
19605;SDS011;9950;50.168;8.210;2022-09-09T00:55:14;4.35;;;1.45;;
19605;SDS011;9950;50.168;8.210;2022-09-09T00:57:44;5.68;;;1.40;;
19605;SDS011;9950;50.168;8.210;2022-09-09T01:00:22;3.22;;;1.42;;
19605;SDS011;9950;50.168;8.210;2022-09-09T01:02:54;3.35;;;1.55;;
19605;SDS011;9950;50.168;8.210;2022-09-09T01:05:25;4.00;;;1.40;;
19605;SDS011;9950;50.168;8.210;2022-09-09T01:07:55;4.07;;;1.60;;
19605;SDS011;9950;50.168;8.210;2022-09-09T01:10:26;3.40;;;1.10;;
19605;SDS011;9950;50.168;8.210;2022-09-09T01:12:55;4.15;;;1.42;;
19605;SDS011;9950;50.168;8.210;2022-09-09T01:15:24;3.22;;;1.30;;
19605;SDS011;9950;50.168;8.210;2022-09-09T01:17:55;4.95;;;1.73;;
19605;SDS011;9950;50.168;8.210;2022-09-09T01:20:27;5.07;;;2.00;;
19605;SDS011;9950;50.168;8.210;2022-09-09T01:23:04;3.88;;;1.58;;
19605;SDS011;9950;50.168;8.210;2022-09-09T01:26:04;5.60;;;2.00;;
19605;SDS011;9950;50.168;8.210;2022-09-09T01:28:35;7.53;;;1.75;;
19605;SDS011;9950;50.168;8.210;2022-09-09T01:31:03;5.57;;;2.10;;
19605;SDS011;9950;50.168;8.210;2022-09-09T01:33:31;5.35;;;1.92;;
19605;SDS011;9950;50.168;8.210;2022-09-09T01:35:59;5.47;;;2.10;;
19605;SDS011;9950;50.168;8.210;2022-09-09T01:38:27;4.90;;;1.83;;
19605;SDS011;9950;50.168;8.210;2022-09-09T01:40:55;4.28;;;2.03;;
19605;SDS011;9950;50.168;8.210;2022-09-09T01:43:24;4.90;;;1.98;;
19605;SDS011;9950;50.168;8.210;2022-09-09T01:45:53;5.15;;;2.63;;
19605;SDS011;9950;50.168;8.210;2022-09-09T01:48:21;4.85;;;2.65;;
19605;SDS011;9950;50.168;8.210;2022-09-09T01:50:48;7.30;;;2.67;;
19605;SDS011;9950;50.168;8.210;2022-09-09T01:53:16;6.30;;;2.25;;
19605;SDS011;9950;50.168;8.210;2022-09-09T01:55:44;4.85;;;2.42;;
19605;SDS011;9950;50.168;8.210;2022-09-09T01:58:18;9.52;;;3.30;;
19605;SDS011;9950;50.168;8.210;2022-09-09T02:00:50;3.58;;;1.92;;
19605;SDS011;9950;50.168;8.210;2022-09-09T02:03:24;7.90;;;2.40;;
19605;SDS011;9950;50.168;8.210;2022-09-09T02:05:54;6.18;;;2.70;;
19605;SDS011;9950;50.168;8.210;2022-09-09T02:08:23;5.05;;;2.28;;
19605;SDS011;9950;50.168;8.210;2022-09-09T02:10:53;5.18;;;2.30;;
19605;SDS011;9950;50.168;8.210;2022-09-09T02:13:22;6.38;;;2.60;;
19605;SDS011;9950;50.168;8.210;2022-09-09T02:15:52;7.13;;;1.75;;
19605;SDS011;9950;50.168;8.210;2022-09-09T02:18:21;4.72;;;2.47;;
19605;SDS011;9950;50.168;8.210;2022-09-09T02:20:49;6.25;;;2.10;;
19605;SDS011;9950;50.168;8.210;2022-09-09T02:23:17;8.65;;;2.35;;
19605;SDS011;9950;50.168;8.210;2022-09-09T02:25:45;4.53;;;2.13;;
19605;SDS011;9950;50.168;8.210;2022-09-09T02:28:13;4.47;;;2.10;;
19605;SDS011;9950;50.168;8.210;2022-09-09T02:30:42;6.90;;;2.25;;
19605;SDS011;9950;50.168;8.210;2022-09-09T02:33:13;6.35;;;2.15;;
19605;SDS011;9950;50.168;8.210;2022-09-09T02:35:41;10.05;;;2.47;;
19605;SDS011;9950;50.168;8.210;2022-09-09T02:38:10;4.88;;;1.90;;
19605;SDS011;9950;50.168;8.210;2022-09-09T02:40:39;4.43;;;2.33;;
19605;SDS011;9950;50.168;8.210;2022-09-09T02:43:06;6.32;;;2.33;;
19605;SDS011;9950;50.168;8.210;2022-09-09T02:45:35;7.43;;;2.03;;
19605;SDS011;9950;50.168;8.210;2022-09-09T02:48:05;4.07;;;2.25;;
19605;SDS011;9950;50.168;8.210;2022-09-09T02:50:37;5.28;;;2.00;;
19605;SDS011;9950;50.168;8.210;2022-09-09T02:53:07;7.97;;;2.63;;
19605;SDS011;9950;50.168;8.210;2022-09-09T02:55:38;5.88;;;2.13;;
19605;SDS011;9950;50.168;8.210;2022-09-09T02:58:08;5.53;;;2.58;;
19605;SDS011;9950;50.168;8.210;2022-09-09T03:00:36;5.30;;;2.30;;
19605;SDS011;9950;50.168;8.210;2022-09-09T03:03:04;6.18;;;2.00;;
19605;SDS011;9950;50.168;8.210;2022-09-09T03:05:32;5.32;;;2.03;;
19605;SDS011;9950;50.168;8.210;2022-09-09T03:08:01;4.55;;;1.95;;
19605;SDS011;9950;50.168;8.210;2022-09-09T03:10:28;7.18;;;2.58;;
19605;SDS011;9950;50.168;8.210;2022-09-09T03:12:55;5.47;;;2.33;;
19605;SDS011;9950;50.168;8.210;2022-09-09T03:15:23;6.10;;;2.20;;
19605;SDS011;9950;50.168;8.210;2022-09-09T03:17:55;5.53;;;2.30;;
19605;SDS011;9950;50.168;8.210;2022-09-09T03:20:23;5.45;;;2.40;;
19605;SDS011;9950;50.168;8.210;2022-09-09T03:22:51;5.13;;;2.20;;
19605;SDS011;9950;50.168;8.210;2022-09-09T03:25:20;6.03;;;2.70;;
19605;SDS011;9950;50.168;8.210;2022-09-09T03:27:48;6.03;;;2.30;;
19605;SDS011;9950;50.168;8.210;2022-09-09T03:30:26;5.60;;;2.30;;
19605;SDS011;9950;50.168;8.210;2022-09-09T03:32:59;7.18;;;2.47;;
19605;SDS011;9950;50.168;8.210;2022-09-09T03:35:26;8.07;;;2.42;;
19605;SDS011;9950;50.168;8.210;2022-09-09T03:37:54;6.47;;;2.20;;
19605;SDS011;9950;50.168;8.210;2022-09-09T03:40:23;5.57;;;2.58;;
19605;SDS011;9950;50.168;8.210;2022-09-09T03:42:50;8.63;;;2.90;;
19605;SDS011;9950;50.168;8.210;2022-09-09T03:45:17;5.35;;;2.50;;
19605;SDS011;9950;50.168;8.210;2022-09-09T03:47:44;4.90;;;2.08;;
19605;SDS011;9950;50.168;8.210;2022-09-09T03:50:12;7.30;;;2.50;;
19605;SDS011;9950;50.168;8.210;2022-09-09T03:52:40;6.63;;;3.10;;
19605;SDS011;9950;50.168;8.210;2022-09-09T03:55:08;4.80;;;3.40;;
19605;SDS011;9950;50.168;8.210;2022-09-09T03:57:37;7.57;;;3.28;;
19605;SDS011;9950;50.168;8.210;2022-09-09T04:00:05;8.85;;;3.50;;
19605;SDS011;9950;50.168;8.210;2022-09-09T04:02:32;6.57;;;3.42;;
19605;SDS011;9950;50.168;8.210;2022-09-09T04:05:03;16.67;;;4.53;;
19605;SDS011;9950;50.168;8.210;2022-09-09T04:07:32;7.82;;;4.28;;
19605;SDS011;9950;50.168;8.210;2022-09-09T04:09:59;7.65;;;4.30;;
19605;SDS011;9950;50.168;8.210;2022-09-09T04:12:26;7.95;;;4.20;;
19605;SDS011;9950;50.168;8.210;2022-09-09T04:14:58;5.80;;;4.40;;
19605;SDS011;9950;50.168;8.210;2022-09-09T04:17:27;8.40;;;3.83;;
19605;SDS011;9950;50.168;8.210;2022-09-09T04:19:54;6.45;;;3.72;;
19605;SDS011;9950;50.168;8.210;2022-09-09T04:22:22;9.30;;;4.47;;
19605;SDS011;9950;50.168;8.210;2022-09-09T04:24:49;6.00;;;3.50;;
19605;SDS011;9950;50.168;8.210;2022-09-09T04:27:16;7.35;;;4.35;;
19605;SDS011;9950;50.168;8.210;2022-09-09T04:29:44;6.97;;;4.35;;
19605;SDS011;9950;50.168;8.210;2022-09-09T04:32:12;7.28;;;4.63;;
19605;SDS011;9950;50.168;8.210;2022-09-09T04:34:40;7.13;;;4.70;;
19605;SDS011;9950;50.168;8.210;2022-09-09T04:37:07;8.23;;;4.40;;
19605;SDS011;9950;50.168;8.210;2022-09-09T04:39:34;6.95;;;4.32;;
19605;SDS011;9950;50.168;8.210;2022-09-09T04:42:02;14.38;;;4.85;;
19605;SDS011;9950;50.168;8.210;2022-09-09T04:44:29;9.68;;;4.15;;
19605;SDS011;9950;50.168;8.210;2022-09-09T04:46:56;7.53;;;4.47;;
19605;SDS011;9950;50.168;8.210;2022-09-09T04:49:25;8.32;;;4.22;;
19605;SDS011;9950;50.168;8.210;2022-09-09T04:51:52;7.10;;;4.25;;
19605;SDS011;9950;50.168;8.210;2022-09-09T04:54:19;9.50;;;4.70;;
19605;SDS011;9950;50.168;8.210;2022-09-09T04:56:47;8.52;;;4.82;;
19605;SDS011;9950;50.168;8.210;2022-09-09T04:59:14;6.05;;;4.25;;
19605;SDS011;9950;50.168;8.210;2022-09-09T05:01:41;9.27;;;4.68;;
19605;SDS011;9950;50.168;8.210;2022-09-09T05:04:08;9.45;;;5.50;;
19605;SDS011;9950;50.168;8.210;2022-09-09T05:06:37;11.45;;;6.38;;
19605;SDS011;9950;50.168;8.210;2022-09-09T05:09:05;9.02;;;6.10;;
19605;SDS011;9950;50.168;8.210;2022-09-09T05:11:32;10.75;;;6.07;;
19605;SDS011;9950;50.168;8.210;2022-09-09T05:14:01;8.07;;;6.30;;
19605;SDS011;9950;50.168;8.210;2022-09-09T05:16:29;14.65;;;7.63;;
19605;SDS011;9950;50.168;8.210;2022-09-09T05:18:57;10.35;;;6.78;;
19605;SDS011;9950;50.168;8.210;2022-09-09T05:21:24;8.50;;;6.72;;
19605;SDS011;9950;50.168;8.210;2022-09-09T05:23:54;11.90;;;7.15;;
19605;SDS011;9950;50.168;8.210;2022-09-09T05:26:23;11.35;;;8.55;;
19605;SDS011;9950;50.168;8.210;2022-09-09T05:28:50;14.07;;;9.45;;
19605;SDS011;9950;50.168;8.210;2022-09-09T05:31:17;14.00;;;9.30;;
19605;SDS011;9950;50.168;8.210;2022-09-09T05:33:46;12.95;;;8.60;;
19605;SDS011;9950;50.168;8.210;2022-09-09T05:36:14;12.55;;;8.10;;
19605;SDS011;9950;50.168;8.210;2022-09-09T05:38:42;11.18;;;7.30;;
19605;SDS011;9950;50.168;8.210;2022-09-09T05:41:11;10.98;;;6.78;;
19605;SDS011;9950;50.168;8.210;2022-09-09T05:43:40;11.60;;;6.50;;
19605;SDS011;9950;50.168;8.210;2022-09-09T05:46:10;8.70;;;5.95;;
19605;SDS011;9950;50.168;8.210;2022-09-09T05:48:37;9.80;;;6.03;;
19605;SDS011;9950;50.168;8.210;2022-09-09T05:51:06;10.00;;;5.60;;
19605;SDS011;9950;50.168;8.210;2022-09-09T05:53:33;9.43;;;5.32;;
19605;SDS011;9950;50.168;8.210;2022-09-09T05:56:01;9.43;;;5.57;;
19605;SDS011;9950;50.168;8.210;2022-09-09T05:58:31;9.77;;;5.05;;
19605;SDS011;9950;50.168;8.210;2022-09-09T06:01:02;6.50;;;4.43;;
19605;SDS011;9950;50.168;8.210;2022-09-09T06:03:29;5.90;;;4.32;;
19605;SDS011;9950;50.168;8.210;2022-09-09T06:05:57;10.25;;;4.50;;
19605;SDS011;9950;50.168;8.210;2022-09-09T06:08:24;7.00;;;3.88;;
19605;SDS011;9950;50.168;8.210;2022-09-09T06:10:52;7.20;;;4.10;;
19605;SDS011;9950;50.168;8.210;2022-09-09T06:13:19;6.65;;;3.95;;
19605;SDS011;9950;50.168;8.210;2022-09-09T06:15:51;8.32;;;4.38;;
19605;SDS011;9950;50.168;8.210;2022-09-09T06:18:18;6.80;;;4.40;;
19605;SDS011;9950;50.168;8.210;2022-09-09T06:20:56;8.05;;;3.92;;
19605;SDS011;9950;50.168;8.210;2022-09-09T06:23:23;6.47;;;3.72;;
19605;SDS011;9950;50.168;8.210;2022-09-09T06:25:51;5.88;;;3.50;;
19605;SDS011;9950;50.168;8.210;2022-09-09T06:28:18;6.43;;;3.40;;
19605;SDS011;9950;50.168;8.210;2022-09-09T06:30:45;3.88;;;3.03;;
19605;SDS011;9950;50.168;8.210;2022-09-09T06:33:14;7.60;;;3.33;;
19605;SDS011;9950;50.168;8.210;2022-09-09T06:35:41;10.05;;;3.33;;
19605;SDS011;9950;50.168;8.210;2022-09-09T06:38:10;6.20;;;3.17;;
19605;SDS011;9950;50.168;8.210;2022-09-09T06:40:37;4.20;;;2.97;;
19605;SDS011;9950;50.168;8.210;2022-09-09T06:43:04;9.63;;;3.00;;
19605;SDS011;9950;50.168;8.210;2022-09-09T06:45:32;6.13;;;3.10;;
19605;SDS011;9950;50.168;8.210;2022-09-09T06:48:01;6.25;;;3.22;;
19605;SDS011;9950;50.168;8.210;2022-09-09T06:50:30;7.93;;;3.80;;
19605;SDS011;9950;50.168;8.210;2022-09-09T06:52:57;5.38;;;3.33;;
19605;SDS011;9950;50.168;8.210;2022-09-09T06:55:25;6.55;;;3.47;;
19605;SDS011;9950;50.168;8.210;2022-09-09T06:57:52;6.57;;;3.63;;
19605;SDS011;9950;50.168;8.210;2022-09-09T07:00:19;6.70;;;3.75;;
19605;SDS011;9950;50.168;8.210;2022-09-09T07:02:46;6.07;;;3.17;;
19605;SDS011;9950;50.168;8.210;2022-09-09T07:05:16;6.93;;;3.17;;
19605;SDS011;9950;50.168;8.210;2022-09-09T07:07:44;8.57;;;3.42;;
19605;SDS011;9950;50.168;8.210;2022-09-09T07:10:11;6.72;;;3.60;;
19605;SDS011;9950;50.168;8.210;2022-09-09T07:12:39;6.47;;;3.92;;
19605;SDS011;9950;50.168;8.210;2022-09-09T07:15:06;6.80;;;4.45;;
19605;SDS011;9950;50.168;8.210;2022-09-09T07:17:34;4.90;;;4.00;;
19605;SDS011;9950;50.168;8.210;2022-09-09T07:20:01;10.48;;;4.90;;
19605;SDS011;9950;50.168;8.210;2022-09-09T07:22:28;10.02;;;4.65;;
19605;SDS011;9950;50.168;8.210;2022-09-09T07:24:57;7.43;;;5.70;;
19605;SDS011;9950;50.168;8.210;2022-09-09T07:27:24;6.15;;;5.55;;
19605;SDS011;9950;50.168;8.210;2022-09-09T07:29:52;8.55;;;6.32;;
19605;SDS011;9950;50.168;8.210;2022-09-09T07:32:20;8.60;;;5.60;;
19605;SDS011;9950;50.168;8.210;2022-09-09T07:34:47;7.82;;;5.25;;
19605;SDS011;9950;50.168;8.210;2022-09-09T07:37:15;11.48;;;5.22;;
19605;SDS011;9950;50.168;8.210;2022-09-09T07:39:42;8.05;;;5.38;;
19605;SDS011;9950;50.168;8.210;2022-09-09T07:42:11;6.38;;;5.28;;
19605;SDS011;9950;50.168;8.210;2022-09-09T07:44:40;8.55;;;4.88;;
19605;SDS011;9950;50.168;8.210;2022-09-09T07:47:07;7.78;;;4.57;;
19605;SDS011;9950;50.168;8.210;2022-09-09T07:49:34;5.72;;;5.03;;
19605;SDS011;9950;50.168;8.210;2022-09-09T07:52:02;6.72;;;3.78;;
19605;SDS011;9950;50.168;8.210;2022-09-09T07:54:29;6.68;;;3.80;;
19605;SDS011;9950;50.168;8.210;2022-09-09T07:56:57;5.30;;;3.60;;
19605;SDS011;9950;50.168;8.210;2022-09-09T07:59:26;8.82;;;4.18;;
19605;SDS011;9950;50.168;8.210;2022-09-09T08:01:55;7.43;;;3.50;;
19605;SDS011;9950;50.168;8.210;2022-09-09T08:04:23;6.82;;;3.30;;
19605;SDS011;9950;50.168;8.210;2022-09-09T08:06:53;7.10;;;3.30;;
19605;SDS011;9950;50.168;8.210;2022-09-09T08:09:21;4.25;;;3.17;;
19605;SDS011;9950;50.168;8.210;2022-09-09T08:11:50;6.25;;;3.20;;
19605;SDS011;9950;50.168;8.210;2022-09-09T08:14:17;7.95;;;3.55;;
19605;SDS011;9950;50.168;8.210;2022-09-09T08:16:47;9.43;;;3.58;;
19605;SDS011;9950;50.168;8.210;2022-09-09T08:19:15;10.93;;;3.30;;
19605;SDS011;9950;50.168;8.210;2022-09-09T08:21:43;9.10;;;3.35;;
19605;SDS011;9950;50.168;8.210;2022-09-09T08:24:11;5.35;;;2.80;;
19605;SDS011;9950;50.168;8.210;2022-09-09T08:26:43;8.30;;;3.55;;
19605;SDS011;9950;50.168;8.210;2022-09-09T08:29:12;8.48;;;3.17;;
19605;SDS011;9950;50.168;8.210;2022-09-09T08:31:40;6.60;;;2.65;;
19605;SDS011;9950;50.168;8.210;2022-09-09T08:34:09;8.65;;;2.55;;
19605;SDS011;9950;50.168;8.210;2022-09-09T08:36:38;4.32;;;2.78;;
19605;SDS011;9950;50.168;8.210;2022-09-09T08:39:06;7.75;;;3.00;;
19605;SDS011;9950;50.168;8.210;2022-09-09T08:44:18;6.53;;;2.58;;
19605;SDS011;9950;50.168;8.210;2022-09-09T08:46:51;8.45;;;2.90;;
19605;SDS011;9950;50.168;8.210;2022-09-09T08:49:29;4.95;;;2.58;;
19605;SDS011;9950;50.168;8.210;2022-09-09T08:52:03;7.57;;;2.70;;
19605;SDS011;9950;50.168;8.210;2022-09-09T08:54:35;6.10;;;3.00;;
19605;SDS011;9950;50.168;8.210;2022-09-09T08:57:02;6.20;;;3.00;;
19605;SDS011;9950;50.168;8.210;2022-09-09T08:59:30;7.53;;;3.08;;
19605;SDS011;9950;50.168;8.210;2022-09-09T09:02:00;6.72;;;2.88;;
19605;SDS011;9950;50.168;8.210;2022-09-09T09:04:32;7.70;;;2.90;;
19605;SDS011;9950;50.168;8.210;2022-09-09T09:07:03;7.95;;;2.97;;
19605;SDS011;9950;50.168;8.210;2022-09-09T09:09:34;7.25;;;2.63;;
19605;SDS011;9950;50.168;8.210;2022-09-09T09:12:17;7.03;;;2.90;;
19605;SDS011;9950;50.168;8.210;2022-09-09T09:14:45;6.60;;;3.10;;
19605;SDS011;9950;50.168;8.210;2022-09-09T09:17:14;4.28;;;3.13;;
19605;SDS011;9950;50.168;8.210;2022-09-09T09:19:43;5.65;;;2.90;;
19605;SDS011;9950;50.168;8.210;2022-09-09T09:22:14;5.88;;;2.85;;
19605;SDS011;9950;50.168;8.210;2022-09-09T09:24:45;5.93;;;3.40;;
19605;SDS011;9950;50.168;8.210;2022-09-09T09:27:15;12.40;;;2.88;;
19605;SDS011;9950;50.168;8.210;2022-09-09T09:29:43;9.50;;;2.72;;
19605;SDS011;9950;50.168;8.210;2022-09-09T09:32:13;6.38;;;2.13;;
19605;SDS011;9950;50.168;8.210;2022-09-09T09:34:42;7.53;;;2.40;;
19605;SDS011;9950;50.168;8.210;2022-09-09T09:37:16;6.50;;;2.22;;
19605;SDS011;9950;50.168;8.210;2022-09-09T09:39:44;5.65;;;1.80;;
19605;SDS011;9950;50.168;8.210;2022-09-09T09:42:12;7.32;;;2.20;;
19605;SDS011;9950;50.168;8.210;2022-09-09T09:44:40;7.18;;;2.55;;
19605;SDS011;9950;50.168;8.210;2022-09-09T09:47:10;4.53;;;2.10;;
19605;SDS011;9950;50.168;8.210;2022-09-09T09:49:38;3.03;;;1.40;;
19605;SDS011;9950;50.168;8.210;2022-09-09T09:52:12;3.72;;;2.00;;
19605;SDS011;9950;50.168;8.210;2022-09-09T09:54:41;4.78;;;1.50;;
19605;SDS011;9950;50.168;8.210;2022-09-09T09:57:09;2.90;;;1.30;;
19605;SDS011;9950;50.168;8.210;2022-09-09T09:59:37;5.68;;;1.70;;
19605;SDS011;9950;50.168;8.210;2022-09-09T10:02:06;4.20;;;1.75;;
19605;SDS011;9950;50.168;8.210;2022-09-09T10:04:34;2.10;;;1.40;;
19605;SDS011;9950;50.168;8.210;2022-09-09T10:07:10;5.07;;;1.80;;
19605;SDS011;9950;50.168;8.210;2022-09-09T10:09:38;3.15;;;1.38;;
19605;SDS011;9950;50.168;8.210;2022-09-09T10:12:08;7.22;;;1.80;;
19605;SDS011;9950;50.168;8.210;2022-09-09T10:14:40;4.97;;;1.85;;
19605;SDS011;9950;50.168;8.210;2022-09-09T10:17:15;4.68;;;1.60;;
19605;SDS011;9950;50.168;8.210;2022-09-09T10:19:47;4.43;;;1.20;;
19605;SDS011;9950;50.168;8.210;2022-09-09T10:22:25;4.35;;;1.70;;
19605;SDS011;9950;50.168;8.210;2022-09-09T10:24:57;3.92;;;1.55;;
19605;SDS011;9950;50.168;8.210;2022-09-09T10:27:27;4.03;;;1.20;;
19605;SDS011;9950;50.168;8.210;2022-09-09T10:30:09;2.83;;;1.20;;
19605;SDS011;9950;50.168;8.210;2022-09-09T10:32:45;3.05;;;1.15;;
19605;SDS011;9950;50.168;8.210;2022-09-09T10:35:16;4.10;;;1.50;;
19605;SDS011;9950;50.168;8.210;2022-09-09T10:37:52;5.95;;;1.17;;
19605;SDS011;9950;50.168;8.210;2022-09-09T10:40:25;5.07;;;1.50;;
19605;SDS011;9950;50.168;8.210;2022-09-09T10:42:56;6.45;;;1.30;;
19605;SDS011;9950;50.168;8.210;2022-09-09T10:45:27;8.43;;;1.33;;
19605;SDS011;9950;50.168;8.210;2022-09-09T10:48:05;4.78;;;1.20;;
19605;SDS011;9950;50.168;8.210;2022-09-09T10:50:41;3.88;;;1.45;;
19605;SDS011;9950;50.168;8.210;2022-09-09T10:53:12;6.03;;;1.50;;
19605;SDS011;9950;50.168;8.210;2022-09-09T10:55:42;3.50;;;1.23;;
19605;SDS011;9950;50.168;8.210;2022-09-09T10:58:10;4.10;;;0.98;;
19605;SDS011;9950;50.168;8.210;2022-09-09T11:00:42;5.45;;;1.73;;
19605;SDS011;9950;50.168;8.210;2022-09-09T11:05:40;5.05;;;1.20;;
19605;SDS011;9950;50.168;8.210;2022-09-09T11:08:10;3.10;;;1.05;;
19605;SDS011;9950;50.168;8.210;2022-09-09T11:10:41;7.18;;;1.98;;
19605;SDS011;9950;50.168;8.210;2022-09-09T11:13:14;4.38;;;1.67;;
19605;SDS011;9950;50.168;8.210;2022-09-09T11:15:43;6.43;;;1.65;;
19605;SDS011;9950;50.168;8.210;2022-09-09T11:18:13;4.45;;;1.20;;
19605;SDS011;9950;50.168;8.210;2022-09-09T11:20:41;3.40;;;1.13;;
19605;SDS011;9950;50.168;8.210;2022-09-09T11:23:10;6.68;;;1.50;;
19605;SDS011;9950;50.168;8.210;2022-09-09T11:25:41;2.65;;;1.17;;
19605;SDS011;9950;50.168;8.210;2022-09-09T11:28:17;7.80;;;1.85;;
19605;SDS011;9950;50.168;8.210;2022-09-09T11:30:51;3.22;;;1.30;;
19605;SDS011;9950;50.168;8.210;2022-09-09T11:33:28;3.30;;;1.48;;
19605;SDS011;9950;50.168;8.210;2022-09-09T11:36:01;4.82;;;1.70;;
19605;SDS011;9950;50.168;8.210;2022-09-09T11:38:32;6.85;;;1.45;;
19605;SDS011;9950;50.168;8.210;2022-09-09T11:41:05;4.28;;;1.27;;
19605;SDS011;9950;50.168;8.210;2022-09-09T11:43:38;4.60;;;1.77;;
19605;SDS011;9950;50.168;8.210;2022-09-09T11:46:06;2.80;;;1.30;;
19605;SDS011;9950;50.168;8.210;2022-09-09T11:48:34;6.82;;;1.52;;
19605;SDS011;9950;50.168;8.210;2022-09-09T11:51:03;5.03;;;1.42;;
19605;SDS011;9950;50.168;8.210;2022-09-09T11:53:32;4.05;;;1.70;;
19605;SDS011;9950;50.168;8.210;2022-09-09T11:56:08;2.85;;;1.10;;
19605;SDS011;9950;50.168;8.210;2022-09-09T11:58:38;4.45;;;1.20;;
19605;SDS011;9950;50.168;8.210;2022-09-09T12:01:15;6.97;;;1.30;;
19605;SDS011;9950;50.168;8.210;2022-09-09T12:03:43;4.85;;;1.35;;
19605;SDS011;9950;50.168;8.210;2022-09-09T12:06:13;3.25;;;1.02;;
19605;SDS011;9950;50.168;8.210;2022-09-09T12:08:42;4.15;;;1.42;;
19605;SDS011;9950;50.168;8.210;2022-09-09T12:11:12;7.13;;;1.30;;
19605;SDS011;9950;50.168;8.210;2022-09-09T12:13:52;3.88;;;1.00;;
19605;SDS011;9950;50.168;8.210;2022-09-09T12:16:31;5.80;;;1.27;;
19605;SDS011;9950;50.168;8.210;2022-09-09T12:19:06;5.60;;;1.10;;
19605;SDS011;9950;50.168;8.210;2022-09-09T12:21:34;4.97;;;1.20;;
19605;SDS011;9950;50.168;8.210;2022-09-09T12:24:05;4.85;;;1.30;;
19605;SDS011;9950;50.168;8.210;2022-09-09T12:26:36;3.88;;;1.10;;
19605;SDS011;9950;50.168;8.210;2022-09-09T12:29:06;6.70;;;1.42;;
19605;SDS011;9950;50.168;8.210;2022-09-09T12:31:39;2.67;;;1.00;;
19605;SDS011;9950;50.168;8.210;2022-09-09T12:34:09;7.75;;;1.30;;
19605;SDS011;9950;50.168;8.210;2022-09-09T12:36:37;4.28;;;0.90;;
19605;SDS011;9950;50.168;8.210;2022-09-09T12:39:09;3.58;;;1.15;;
19605;SDS011;9950;50.168;8.210;2022-09-09T12:41:39;2.35;;;1.00;;
19605;SDS011;9950;50.168;8.210;2022-09-09T12:44:08;3.92;;;1.00;;
19605;SDS011;9950;50.168;8.210;2022-09-09T12:46:36;3.60;;;1.00;;
19605;SDS011;9950;50.168;8.210;2022-09-09T12:49:05;2.03;;;0.90;;
19605;SDS011;9950;50.168;8.210;2022-09-09T12:51:33;4.47;;;0.90;;
19605;SDS011;9950;50.168;8.210;2022-09-09T12:54:01;2.30;;;1.10;;
19605;SDS011;9950;50.168;8.210;2022-09-09T12:56:28;2.47;;;0.88;;
19605;SDS011;9950;50.168;8.210;2022-09-09T12:58:58;5.07;;;1.20;;
19605;SDS011;9950;50.168;8.210;2022-09-09T13:01:26;2.58;;;0.80;;
19605;SDS011;9950;50.168;8.210;2022-09-09T13:03:55;4.15;;;1.50;;
19605;SDS011;9950;50.168;8.210;2022-09-09T13:06:23;2.60;;;1.00;;
19605;SDS011;9950;50.168;8.210;2022-09-09T13:08:51;4.25;;;0.82;;
19605;SDS011;9950;50.168;8.210;2022-09-09T13:11:19;3.08;;;0.80;;
19605;SDS011;9950;50.168;8.210;2022-09-09T13:13:51;2.55;;;0.80;;
19605;SDS011;9950;50.168;8.210;2022-09-09T13:16:21;2.28;;;0.75;;
19605;SDS011;9950;50.168;8.210;2022-09-09T13:18:49;4.60;;;0.85;;
19605;SDS011;9950;50.168;8.210;2022-09-09T13:21:17;2.20;;;0.70;;
19605;SDS011;9950;50.168;8.210;2022-09-09T13:23:48;3.03;;;0.82;;
19605;SDS011;9950;50.168;8.210;2022-09-09T13:26:21;2.28;;;0.60;;
19605;SDS011;9950;50.168;8.210;2022-09-09T13:28:49;1.83;;;0.68;;
19605;SDS011;9950;50.168;8.210;2022-09-09T13:31:22;2.35;;;0.85;;
19605;SDS011;9950;50.168;8.210;2022-09-09T13:33:49;2.92;;;0.70;;
19605;SDS011;9950;50.168;8.210;2022-09-09T13:36:26;1.95;;;0.88;;
19605;SDS011;9950;50.168;8.210;2022-09-09T13:38:55;4.20;;;1.15;;
19605;SDS011;9950;50.168;8.210;2022-09-09T13:41:25;1.98;;;0.82;;
19605;SDS011;9950;50.168;8.210;2022-09-09T13:43:52;1.95;;;0.60;;
19605;SDS011;9950;50.168;8.210;2022-09-09T13:46:30;3.03;;;0.90;;
19605;SDS011;9950;50.168;8.210;2022-09-09T13:49:00;2.85;;;0.77;;
19605;SDS011;9950;50.168;8.210;2022-09-09T13:51:34;4.10;;;1.23;;
19605;SDS011;9950;50.168;8.210;2022-09-09T13:54:02;3.45;;;1.02;;
19605;SDS011;9950;50.168;8.210;2022-09-09T13:56:32;3.50;;;0.90;;
19605;SDS011;9950;50.168;8.210;2022-09-09T13:58:59;6.13;;;1.05;;
19605;SDS011;9950;50.168;8.210;2022-09-09T14:01:26;3.22;;;1.20;;
19605;SDS011;9950;50.168;8.210;2022-09-09T14:03:56;3.40;;;0.80;;
19605;SDS011;9950;50.168;8.210;2022-09-09T14:06:24;5.93;;;1.10;;
19605;SDS011;9950;50.168;8.210;2022-09-09T14:08:51;5.82;;;1.15;;
19605;SDS011;9950;50.168;8.210;2022-09-09T14:11:19;3.33;;;0.90;;
19605;SDS011;9950;50.168;8.210;2022-09-09T14:13:47;4.32;;;1.00;;
19605;SDS011;9950;50.168;8.210;2022-09-09T14:16:15;2.50;;;1.08;;
19605;SDS011;9950;50.168;8.210;2022-09-09T14:18:43;7.05;;;1.38;;
19605;SDS011;9950;50.168;8.210;2022-09-09T14:21:12;5.93;;;1.40;;
19605;SDS011;9950;50.168;8.210;2022-09-09T14:23:39;4.75;;;1.10;;
19605;SDS011;9950;50.168;8.210;2022-09-09T14:26:07;4.72;;;1.27;;
19605;SDS011;9950;50.168;8.210;2022-09-09T14:28:35;4.82;;;1.00;;
19605;SDS011;9950;50.168;8.210;2022-09-09T14:31:03;3.70;;;0.90;;
19605;SDS011;9950;50.168;8.210;2022-09-09T14:33:30;3.97;;;1.13;;
19605;SDS011;9950;50.168;8.210;2022-09-09T14:35:58;1.42;;;0.98;;
19605;SDS011;9950;50.168;8.210;2022-09-09T14:38:28;3.92;;;1.17;;
19605;SDS011;9950;50.168;8.210;2022-09-09T14:40:55;2.45;;;1.20;;
19605;SDS011;9950;50.168;8.210;2022-09-09T14:43:23;8.35;;;1.45;;
19605;SDS011;9950;50.168;8.210;2022-09-09T14:45:51;9.90;;;1.10;;
19605;SDS011;9950;50.168;8.210;2022-09-09T14:48:18;2.85;;;1.00;;
19605;SDS011;9950;50.168;8.210;2022-09-09T14:50:45;2.55;;;0.90;;
19605;SDS011;9950;50.168;8.210;2022-09-09T14:53:13;3.33;;;1.20;;
19605;SDS011;9950;50.168;8.210;2022-09-09T14:55:41;6.00;;;1.13;;
19605;SDS011;9950;50.168;8.210;2022-09-09T14:58:09;3.90;;;0.95;;
19605;SDS011;9950;50.168;8.210;2022-09-09T15:00:36;4.50;;;1.02;;
19605;SDS011;9950;50.168;8.210;2022-09-09T15:03:04;3.40;;;1.08;;
19605;SDS011;9950;50.168;8.210;2022-09-09T15:05:31;3.45;;;1.08;;
19605;SDS011;9950;50.168;8.210;2022-09-09T15:07:58;2.25;;;1.00;;
19605;SDS011;9950;50.168;8.210;2022-09-09T15:10:26;3.40;;;1.10;;
19605;SDS011;9950;50.168;8.210;2022-09-09T15:12:54;3.47;;;1.20;;
19605;SDS011;9950;50.168;8.210;2022-09-09T15:15:22;3.35;;;1.00;;
19605;SDS011;9950;50.168;8.210;2022-09-09T15:17:49;3.10;;;1.00;;
19605;SDS011;9950;50.168;8.210;2022-09-09T15:20:17;5.45;;;1.10;;